sensor_id;sensor_type;location;lat;lon;timestamp;P1;durP1;ratioP1;P2;durP2;ratioP2
32491;SDS011;20605;49.742;18.802;2022-09-23T00:01:03;14.80;;;10.50;;
32491;SDS011;20605;49.742;18.802;2022-09-23T00:03:33;16.70;;;11.35;;
32491;SDS011;20605;49.742;18.802;2022-09-23T00:06:02;18.25;;;10.82;;
32491;SDS011;20605;49.742;18.802;2022-09-23T00:08:36;17.23;;;12.35;;
32491;SDS011;20605;49.742;18.802;2022-09-23T00:11:12;13.85;;;10.55;;
32491;SDS011;20605;49.742;18.802;2022-09-23T00:13:38;14.78;;;10.85;;
32491;SDS011;20605;49.742;18.802;2022-09-23T00:16:13;16.40;;;12.37;;
32491;SDS011;20605;49.742;18.802;2022-09-23T00:18:39;16.17;;;11.05;;
32491;SDS011;20605;49.742;18.802;2022-09-23T00:21:08;15.88;;;10.95;;
32491;SDS011;20605;49.742;18.802;2022-09-23T00:23:38;16.20;;;11.97;;
32491;SDS011;20605;49.742;18.802;2022-09-23T00:26:09;16.10;;;11.25;;
32491;SDS011;20605;49.742;18.802;2022-09-23T00:28:40;16.50;;;11.25;;
32491;SDS011;20605;49.742;18.802;2022-09-23T00:31:11;16.32;;;11.57;;
32491;SDS011;20605;49.742;18.802;2022-09-23T00:33:41;17.37;;;11.88;;
32491;SDS011;20605;49.742;18.802;2022-09-23T00:36:09;17.62;;;11.18;;
32491;SDS011;20605;49.742;18.802;2022-09-23T00:38:42;15.70;;;11.50;;
32491;SDS011;20605;49.742;18.802;2022-09-23T00:41:10;20.08;;;12.18;;
32491;SDS011;20605;49.742;18.802;2022-09-23T00:43:40;15.05;;;10.85;;
32491;SDS011;20605;49.742;18.802;2022-09-23T00:51:41;16.07;;;11.45;;
32491;SDS011;20605;49.742;18.802;2022-09-23T00:54:11;15.23;;;10.45;;
32491;SDS011;20605;49.742;18.802;2022-09-23T00:56:39;15.30;;;10.72;;
32491;SDS011;20605;49.742;18.802;2022-09-23T00:59:06;13.62;;;10.32;;
32491;SDS011;20605;49.742;18.802;2022-09-23T01:01:36;12.15;;;9.65;;
32491;SDS011;20605;49.742;18.802;2022-09-23T01:04:03;15.28;;;10.08;;
32491;SDS011;20605;49.742;18.802;2022-09-23T01:06:32;14.53;;;10.45;;
32491;SDS011;20605;49.742;18.802;2022-09-23T01:08:59;24.60;;;13.85;;
32491;SDS011;20605;49.742;18.802;2022-09-23T01:34:12;14.45;;;10.63;;
32491;SDS011;20605;49.742;18.802;2022-09-23T01:37:18;20.35;;;10.40;;
32491;SDS011;20605;49.742;18.802;2022-09-23T01:40:02;16.82;;;10.13;;
32491;SDS011;20605;49.742;18.802;2022-09-23T01:42:55;12.30;;;9.55;;
32491;SDS011;20605;49.742;18.802;2022-09-23T01:45:30;15.40;;;9.35;;
32491;SDS011;20605;49.742;18.802;2022-09-23T01:51:01;12.85;;;9.10;;
32491;SDS011;20605;49.742;18.802;2022-09-23T01:56:12;15.53;;;10.43;;
32491;SDS011;20605;49.742;18.802;2022-09-23T01:59:06;14.58;;;10.55;;
32491;SDS011;20605;49.742;18.802;2022-09-23T02:01:40;18.75;;;10.60;;
32491;SDS011;20605;49.742;18.802;2022-09-23T02:04:19;13.28;;;9.33;;
32491;SDS011;20605;49.742;18.802;2022-09-23T02:06:50;15.18;;;9.45;;
32491;SDS011;20605;49.742;18.802;2022-09-23T02:09:24;11.90;;;8.23;;
32491;SDS011;20605;49.742;18.802;2022-09-23T02:11:56;12.20;;;9.60;;
32491;SDS011;20605;49.742;18.802;2022-09-23T02:14:37;13.20;;;9.38;;
32491;SDS011;20605;49.742;18.802;2022-09-23T02:17:08;13.15;;;9.98;;
32491;SDS011;20605;49.742;18.802;2022-09-23T02:19:40;16.00;;;10.32;;
32491;SDS011;20605;49.742;18.802;2022-09-23T02:22:25;13.48;;;9.58;;
32491;SDS011;20605;49.742;18.802;2022-09-23T02:24:55;14.47;;;9.88;;
32491;SDS011;20605;49.742;18.802;2022-09-23T02:27:24;13.38;;;9.68;;
32491;SDS011;20605;49.742;18.802;2022-09-23T02:30:08;15.78;;;9.70;;
32491;SDS011;20605;49.742;18.802;2022-09-23T02:35:22;12.18;;;8.70;;
32491;SDS011;20605;49.742;18.802;2022-09-23T02:43:52;16.77;;;8.88;;
32491;SDS011;20605;49.742;18.802;2022-09-23T02:46:18;11.33;;;8.70;;
32491;SDS011;20605;49.742;18.802;2022-09-23T02:48:50;14.20;;;9.00;;
32491;SDS011;20605;49.742;18.802;2022-09-23T02:51:21;11.28;;;8.53;;
32491;SDS011;20605;49.742;18.802;2022-09-23T02:53:54;10.82;;;8.38;;
32491;SDS011;20605;49.742;18.802;2022-09-23T02:56:23;12.65;;;8.95;;
32491;SDS011;20605;49.742;18.802;2022-09-23T02:58:50;12.80;;;9.28;;
32491;SDS011;20605;49.742;18.802;2022-09-23T03:01:31;12.37;;;9.30;;
32491;SDS011;20605;49.742;18.802;2022-09-23T03:10:25;13.18;;;9.30;;
32491;SDS011;20605;49.742;18.802;2022-09-23T03:18:35;17.23;;;10.82;;
32491;SDS011;20605;49.742;18.802;2022-09-23T03:21:06;15.60;;;11.08;;
32491;SDS011;20605;49.742;18.802;2022-09-23T03:23:37;16.17;;;10.75;;
32491;SDS011;20605;49.742;18.802;2022-09-23T03:26:11;15.60;;;10.58;;
32491;SDS011;20605;49.742;18.802;2022-09-23T03:28:41;17.07;;;11.03;;
32491;SDS011;20605;49.742;18.802;2022-09-23T03:31:10;16.73;;;11.15;;
32491;SDS011;20605;49.742;18.802;2022-09-23T03:33:57;12.90;;;9.53;;
32491;SDS011;20605;49.742;18.802;2022-09-23T03:36:16;13.55;;;9.20;;
32491;SDS011;20605;49.742;18.802;2022-09-23T03:39:11;10.25;;;8.08;;
32491;SDS011;20605;49.742;18.802;2022-09-23T03:41:41;12.47;;;9.43;;
32491;SDS011;20605;49.742;18.802;2022-09-23T03:44:15;12.90;;;9.28;;
32491;SDS011;20605;49.742;18.802;2022-09-23T03:46:44;12.53;;;9.43;;
32491;SDS011;20605;49.742;18.802;2022-09-23T03:49:13;14.38;;;10.30;;
32491;SDS011;20605;49.742;18.802;2022-09-23T03:51:44;13.28;;;10.30;;
32491;SDS011;20605;49.742;18.802;2022-09-23T03:54:11;14.93;;;10.08;;
32491;SDS011;20605;49.742;18.802;2022-09-23T03:56:37;19.48;;;11.93;;
32491;SDS011;20605;49.742;18.802;2022-09-23T03:59:04;12.37;;;9.60;;
32491;SDS011;20605;49.742;18.802;2022-09-23T04:01:31;12.30;;;9.55;;
32491;SDS011;20605;49.742;18.802;2022-09-23T04:03:57;12.40;;;9.43;;
32491;SDS011;20605;49.742;18.802;2022-09-23T04:06:24;13.05;;;9.25;;
32491;SDS011;20605;49.742;18.802;2022-09-23T04:08:51;13.85;;;8.95;;
32491;SDS011;20605;49.742;18.802;2022-09-23T04:11:18;13.10;;;9.60;;
32491;SDS011;20605;49.742;18.802;2022-09-23T04:13:44;12.37;;;9.03;;
32491;SDS011;20605;49.742;18.802;2022-09-23T04:16:12;13.43;;;9.78;;
32491;SDS011;20605;49.742;18.802;2022-09-23T04:18:38;12.85;;;9.68;;
32491;SDS011;20605;49.742;18.802;2022-09-23T04:21:05;13.72;;;9.90;;
32491;SDS011;20605;49.742;18.802;2022-09-23T04:23:32;16.23;;;10.80;;
32491;SDS011;20605;49.742;18.802;2022-09-23T04:25:58;13.70;;;9.95;;
32491;SDS011;20605;49.742;18.802;2022-09-23T04:28:25;12.07;;;9.78;;
32491;SDS011;20605;49.742;18.802;2022-09-23T04:30:52;12.47;;;9.38;;
32491;SDS011;20605;49.742;18.802;2022-09-23T04:33:19;18.07;;;10.28;;
32491;SDS011;20605;49.742;18.802;2022-09-23T04:35:48;14.63;;;11.55;;
32491;SDS011;20605;49.742;18.802;2022-09-23T04:38:16;20.80;;;12.37;;
32491;SDS011;20605;49.742;18.802;2022-09-23T04:40:43;14.43;;;12.05;;
32491;SDS011;20605;49.742;18.802;2022-09-23T04:43:12;21.20;;;12.50;;
32491;SDS011;20605;49.742;18.802;2022-09-23T04:45:58;18.35;;;12.13;;
32491;SDS011;20605;49.742;18.802;2022-09-23T04:48:26;17.92;;;11.88;;
32491;SDS011;20605;49.742;18.802;2022-09-23T04:51:05;21.45;;;12.93;;
32491;SDS011;20605;49.742;18.802;2022-09-23T04:53:35;18.82;;;12.65;;
32491;SDS011;20605;49.742;18.802;2022-09-23T04:56:05;22.40;;;14.47;;
32491;SDS011;20605;49.742;18.802;2022-09-23T04:58:45;23.90;;;15.80;;
32491;SDS011;20605;49.742;18.802;2022-09-23T05:01:13;24.10;;;15.38;;
32491;SDS011;20605;49.742;18.802;2022-09-23T05:03:50;22.10;;;14.98;;
32491;SDS011;20605;49.742;18.802;2022-09-23T05:06:20;20.43;;;15.23;;
32491;SDS011;20605;49.742;18.802;2022-09-23T05:08:51;17.95;;;13.38;;
32491;SDS011;20605;49.742;18.802;2022-09-23T05:11:21;21.82;;;14.53;;
32491;SDS011;20605;49.742;18.802;2022-09-23T05:13:50;20.97;;;12.80;;
32491;SDS011;20605;49.742;18.802;2022-09-23T05:16:19;23.92;;;13.72;;
32491;SDS011;20605;49.742;18.802;2022-09-23T05:18:48;18.82;;;13.13;;
32491;SDS011;20605;49.742;18.802;2022-09-23T05:21:18;14.73;;;11.33;;
32491;SDS011;20605;49.742;18.802;2022-09-23T05:23:48;16.75;;;11.68;;
32491;SDS011;20605;49.742;18.802;2022-09-23T05:26:20;17.27;;;12.85;;
32491;SDS011;20605;49.742;18.802;2022-09-23T05:28:50;19.48;;;14.05;;
32491;SDS011;20605;49.742;18.802;2022-09-23T05:31:18;28.98;;;16.00;;
32491;SDS011;20605;49.742;18.802;2022-09-23T05:33:56;21.97;;;15.60;;
32491;SDS011;20605;49.742;18.802;2022-09-23T05:36:22;21.95;;;15.90;;
32491;SDS011;20605;49.742;18.802;2022-09-23T05:38:51;22.42;;;15.93;;
32491;SDS011;20605;49.742;18.802;2022-09-23T05:41:19;22.22;;;16.85;;
32491;SDS011;20605;49.742;18.802;2022-09-23T05:43:47;23.98;;;16.57;;
32491;SDS011;20605;49.742;18.802;2022-09-23T05:46:17;22.22;;;16.37;;
32491;SDS011;20605;49.742;18.802;2022-09-23T05:48:47;22.42;;;16.57;;
32491;SDS011;20605;49.742;18.802;2022-09-23T05:51:16;24.27;;;16.67;;
32491;SDS011;20605;49.742;18.802;2022-09-23T05:53:45;26.37;;;17.65;;
32491;SDS011;20605;49.742;18.802;2022-09-23T05:56:14;23.32;;;17.23;;
32491;SDS011;20605;49.742;18.802;2022-09-23T05:58:43;20.82;;;16.05;;
32491;SDS011;20605;49.742;18.802;2022-09-23T06:01:11;20.17;;;15.38;;
32491;SDS011;20605;49.742;18.802;2022-09-23T06:03:45;22.37;;;16.10;;
32491;SDS011;20605;49.742;18.802;2022-09-23T06:06:14;27.35;;;17.55;;
32491;SDS011;20605;49.742;18.802;2022-09-23T06:08:44;23.07;;;17.42;;
32491;SDS011;20605;49.742;18.802;2022-09-23T06:11:12;23.67;;;16.30;;
32491;SDS011;20605;49.742;18.802;2022-09-23T06:13:40;21.65;;;17.07;;
32491;SDS011;20605;49.742;18.802;2022-09-23T06:16:12;17.70;;;15.25;;
32491;SDS011;20605;49.742;18.802;2022-09-23T06:18:38;17.95;;;14.55;;
32491;SDS011;20605;49.742;18.802;2022-09-23T06:21:07;20.08;;;15.18;;
32491;SDS011;20605;49.742;18.802;2022-09-23T06:23:38;22.42;;;15.32;;
32491;SDS011;20605;49.742;18.802;2022-09-23T06:26:05;18.35;;;14.70;;
32491;SDS011;20605;49.742;18.802;2022-09-23T06:28:36;20.85;;;16.15;;
32491;SDS011;20605;49.742;18.802;2022-09-23T06:31:06;20.43;;;15.15;;
32491;SDS011;20605;49.742;18.802;2022-09-23T06:33:36;19.55;;;15.28;;
32491;SDS011;20605;49.742;18.802;2022-09-23T06:36:03;18.48;;;14.93;;
32491;SDS011;20605;49.742;18.802;2022-09-23T06:38:32;21.62;;;15.63;;
32491;SDS011;20605;49.742;18.802;2022-09-23T06:40:59;22.42;;;16.93;;
32491;SDS011;20605;49.742;18.802;2022-09-23T06:43:29;23.52;;;19.00;;
32491;SDS011;20605;49.742;18.802;2022-09-23T06:45:57;23.27;;;16.45;;
32491;SDS011;20605;49.742;18.802;2022-09-23T06:48:27;25.92;;;18.80;;
32491;SDS011;20605;49.742;18.802;2022-09-23T06:50:57;22.22;;;16.77;;
32491;SDS011;20605;49.742;18.802;2022-09-23T06:53:27;18.90;;;14.98;;
32491;SDS011;20605;49.742;18.802;2022-09-23T06:55:59;20.70;;;16.60;;
32491;SDS011;20605;49.742;18.802;2022-09-23T06:58:29;22.52;;;17.00;;
32491;SDS011;20605;49.742;18.802;2022-09-23T07:01:00;20.82;;;15.93;;
32491;SDS011;20605;49.742;18.802;2022-09-23T07:03:34;18.32;;;14.73;;
32491;SDS011;20605;49.742;18.802;2022-09-23T07:06:03;18.15;;;13.88;;
32491;SDS011;20605;49.742;18.802;2022-09-23T07:08:31;17.57;;;13.58;;
32491;SDS011;20605;49.742;18.802;2022-09-23T07:11:00;15.68;;;12.20;;
32491;SDS011;20605;49.742;18.802;2022-09-23T07:13:30;156.55;;;29.50;;
32491;SDS011;20605;49.742;18.802;2022-09-23T07:16:01;30.75;;;12.95;;
32491;SDS011;20605;49.742;18.802;2022-09-23T07:18:30;14.73;;;11.15;;
32491;SDS011;20605;49.742;18.802;2022-09-23T07:23:45;13.15;;;10.55;;
32491;SDS011;20605;49.742;18.802;2022-09-23T07:26:10;11.33;;;9.20;;
32491;SDS011;20605;49.742;18.802;2022-09-23T07:28:39;11.80;;;10.38;;
32491;SDS011;20605;49.742;18.802;2022-09-23T07:31:10;12.95;;;10.88;;
32491;SDS011;20605;49.742;18.802;2022-09-23T07:33:41;12.85;;;10.25;;
32491;SDS011;20605;49.742;18.802;2022-09-23T07:36:11;15.95;;;10.35;;
32491;SDS011;20605;49.742;18.802;2022-09-23T07:38:42;12.00;;;10.15;;
32491;SDS011;20605;49.742;18.802;2022-09-23T07:41:10;72.03;;;17.87;;
32491;SDS011;20605;49.742;18.802;2022-09-23T07:43:40;24.70;;;10.90;;
32491;SDS011;20605;49.742;18.802;2022-09-23T07:46:08;15.55;;;10.13;;
32491;SDS011;20605;49.742;18.802;2022-09-23T07:48:38;15.68;;;10.55;;
32491;SDS011;20605;49.742;18.802;2022-09-23T07:51:06;14.50;;;10.05;;
32491;SDS011;20605;49.742;18.802;2022-09-23T07:53:39;10.78;;;9.30;;
32491;SDS011;20605;49.742;18.802;2022-09-23T07:56:06;12.55;;;9.30;;
32491;SDS011;20605;49.742;18.802;2022-09-23T07:58:33;11.70;;;9.63;;
32491;SDS011;20605;49.742;18.802;2022-09-23T08:01:01;13.88;;;11.50;;
32491;SDS011;20605;49.742;18.802;2022-09-23T08:03:33;14.70;;;11.85;;
32491;SDS011;20605;49.742;18.802;2022-09-23T08:06:11;15.03;;;12.63;;
32491;SDS011;20605;49.742;18.802;2022-09-23T08:08:39;13.93;;;11.12;;
32491;SDS011;20605;49.742;18.802;2022-09-23T08:11:08;13.60;;;11.28;;
32491;SDS011;20605;49.742;18.802;2022-09-23T08:13:39;12.13;;;10.68;;
32491;SDS011;20605;49.742;18.802;2022-09-23T08:16:07;14.30;;;10.48;;
